Charlotte, NC (28236)

9:51 PM EST on December 04, 2016 (GMT -0500)
Charlotte | | Change Station

Elev 0 ft 35.23 °N, 80.85 °W | Updated 5 minutes ago

Light Rain
Light Rain Mist
43.2 °F
Feels Like 43 °F
N
2.5
Wind Variable Wind from NW
Gusts 4.3 mph

Today
High -- | Low -- °F
--% Chance of Precip.
Yesterday
High -- | Low -- °F
Precip. -- in
Pressure 30.11 in
Visibility 5.0 miles
Clouds Mostly Cloudy 400 ft
Overcast 1000 ft
Windchill 43 °F
Dew Point 38 °F
Humidity 83%
Rainfall Not available.
Snow Depth Not available.
7:16 AM 5:10 PM
Waxing Crescent, 27% visible
SPECI KCLT 050216Z VRB04KT 5SM -RA BR BKN004 OVC010 06/04 A3011 RMK AO2 P0002 T00560039
Pressure 30.11 in
Visibility 5.0 miles
Clouds Mostly Cloudy 400 ft
Overcast 1000 ft
Windchill 43 °F
Dew Point 38 °F
Humidity 83%
Rainfall Not available.
Snow Depth Not available.
7:16 AM 5:10 PM
Waxing Crescent, 27% visible
SPECI KCLT 050216Z VRB04KT 5SM -RA BR BKN004 OVC010 06/04 A3011 RMK AO2 P0002 T00560039

10-Day Weather Forecast

Almanac

Astronomy

Dec. 04, 2016 Rise Set
Actual Time
Civil Twilight
Nautical Twilight
Astronomical Twilight
Moon
Length of Visible Light
Length of Day
Tomorrow will be .
, % of the Moon is Illuminated

Today's Extremes

State Highs State Lows

Community

WunderPhotos

Upload Photos

1,955,749 photos uploaded!

WunderBlog® & News

Nearby

Air Quality

  Air Quality AQ Index Pollutant
Not available.

Snow Depth

Station Depth Elevation

Earthquake Activity

City Distance Mag. Time & Date
Minimum magnitude displayed is 2.5.

Coastal Water Temperatures

Place Temperature

Stations

Nearby Weather Stations

Station Location Temp. Windchill Dew Point Humidity Wind Precip. Elev Updated Type
                   

Watches & Warnings

There are currently no watches in effect.